LTAT/MLX METAR and TAF weather

Enter ICAO airport designator
Station Type Date Time Source
LTAT METAR 2022/06/30 12:50 UTC NOAA

LTAT 301250Z 07007KT 030V100 9999 FEW040 33/07 Q1008 TEMPO 18012KT


Station Type Date Time Source
LTAT Decoded METAR 2022/06/30 12:50 UTC NOAA

Malatya / Erhac, Turkey (LTAT) 38-26N 038-05E 849M
Jun 30, 2022 - 08:50 AM EDT / 2022.06.30 1250 UTC
Wind: from the ENE (070 degrees) at 8 MPH (7 KT) (direction variable):0
Visibility: greater than 7 mile(s):0
Sky conditions: mostly clear
Temperature: 91 F (33 C)
Dew Point: 44 F (7 C)
Relative Humidity: 19%
Pressure (altimeter): 29.77 in. Hg (1008 hPa)
ob: LTAT 301250Z 07007KT 030V100 9999 FEW040 33/07 Q1008 TEMPO 18012KT
cycle: 13

Station Type Date Time Source
LTAT TAF 2022/06/30 12:03 UTC NOAA

TAF LTAT 301040Z 3012/0112 VRB02KT 9999 FEW040
TEMPO 3012/3016 18012KT
BECMG 3016/3018 CAVOK
TEMPO 3018/3022 27013G23KT
BECMG 0106/0108 SCT040

Example: see airport list